sensor_id;sensor_type;location;lat;lon;timestamp;temperature;humidity
61323;DHT22;47203;48.428;11.974;2024-02-28T00:00:42;10.20;59.80
61323;DHT22;47203;48.428;11.974;2024-02-28T00:02:48;10.20;59.90
61323;DHT22;47203;48.428;11.974;2024-02-28T00:04:51;10.20;60.00
61323;DHT22;47203;48.428;11.974;2024-02-28T00:06:55;10.20;60.00
61323;DHT22;47203;48.428;11.974;2024-02-28T00:09:00;10.10;60.00
61323;DHT22;47203;48.428;11.974;2024-02-28T00:11:03;10.10;60.00
61323;DHT22;47203;48.428;11.974;2024-02-28T00:13:08;10.10;60.00
61323;DHT22;47203;48.428;11.974;2024-02-28T00:15:12;10.00;60.00
61323;DHT22;47203;48.428;11.974;2024-02-28T00:17:14;10.00;60.00
61323;DHT22;47203;48.428;11.974;2024-02-28T00:19:18;10.00;60.00
61323;DHT22;47203;48.428;11.974;2024-02-28T00:21:22;10.00;60.00
61323;DHT22;47203;48.428;11.974;2024-02-28T00:23:25;10.00;60.00
61323;DHT22;47203;48.428;11.974;2024-02-28T00:25:30;9.90;59.90
61323;DHT22;47203;48.428;11.974;2024-02-28T00:27:36;9.90;59.80
61323;DHT22;47203;48.428;11.974;2024-02-28T00:29:40;9.90;59.90
61323;DHT22;47203;48.428;11.974;2024-02-28T00:31:44;9.90;59.90
61323;DHT22;47203;48.428;11.974;2024-02-28T00:33:47;9.80;59.80
61323;DHT22;47203;48.428;11.974;2024-02-28T00:35:51;9.80;59.80
61323;DHT22;47203;48.428;11.974;2024-02-28T00:37:55;9.80;59.80
61323;DHT22;47203;48.428;11.974;2024-02-28T00:39:59;9.80;59.80
61323;DHT22;47203;48.428;11.974;2024-02-28T00:42:04;9.80;59.90
61323;DHT22;47203;48.428;11.974;2024-02-28T00:44:08;9.70;59.90
61323;DHT22;47203;48.428;11.974;2024-02-28T00:46:12;9.70;59.90
61323;DHT22;47203;48.428;11.974;2024-02-28T00:48:15;9.70;59.90
61323;DHT22;47203;48.428;11.974;2024-02-28T00:50:19;9.60;59.80
61323;DHT22;47203;48.428;11.974;2024-02-28T00:52:23;9.60;59.90
61323;DHT22;47203;48.428;11.974;2024-02-28T00:54:27;9.60;59.90
61323;DHT22;47203;48.428;11.974;2024-02-28T00:56:31;9.60;60.00
61323;DHT22;47203;48.428;11.974;2024-02-28T00:58:37;9.60;60.00
61323;DHT22;47203;48.428;11.974;2024-02-28T01:00:40;9.60;60.10
61323;DHT22;47203;48.428;11.974;2024-02-28T01:02:44;9.50;60.00
61323;DHT22;47203;48.428;11.974;2024-02-28T01:04:47;9.50;60.00
61323;DHT22;47203;48.428;11.974;2024-02-28T01:06:50;9.50;60.00
61323;DHT22;47203;48.428;11.974;2024-02-28T01:08:53;9.50;60.00
61323;DHT22;47203;48.428;11.974;2024-02-28T01:10:56;9.50;60.10
61323;DHT22;47203;48.428;11.974;2024-02-28T01:13:00;9.40;60.10
61323;DHT22;47203;48.428;11.974;2024-02-28T01:15:07;9.40;60.20
61323;DHT22;47203;48.428;11.974;2024-02-28T01:17:11;9.40;60.30
61323;DHT22;47203;48.428;11.974;2024-02-28T01:19:16;9.40;60.40
61323;DHT22;47203;48.428;11.974;2024-02-28T01:21:18;9.30;60.40
61323;DHT22;47203;48.428;11.974;2024-02-28T01:23:22;9.40;60.30
61323;DHT22;47203;48.428;11.974;2024-02-28T01:25:25;9.30;60.20
61323;DHT22;47203;48.428;11.974;2024-02-28T01:27:29;9.40;60.20
61323;DHT22;47203;48.428;11.974;2024-02-28T01:29:32;9.30;60.80
61323;DHT22;47203;48.428;11.974;2024-02-28T01:31:36;9.30;60.20
61323;DHT22;47203;48.428;11.974;2024-02-28T01:33:40;9.30;60.30
61323;DHT22;47203;48.428;11.974;2024-02-28T01:35:43;9.30;60.30
61323;DHT22;47203;48.428;11.974;2024-02-28T01:37:47;9.30;60.40
61323;DHT22;47203;48.428;11.974;2024-02-28T01:39:51;9.30;60.50
61323;DHT22;47203;48.428;11.974;2024-02-28T01:41:54;9.30;60.50
61323;DHT22;47203;48.428;11.974;2024-02-28T01:43:59;9.40;60.50
61323;DHT22;47203;48.428;11.974;2024-02-28T01:46:06;9.20;60.40
61323;DHT22;47203;48.428;11.974;2024-02-28T01:48:23;9.30;60.60
61323;DHT22;47203;48.428;11.974;2024-02-28T01:50:26;9.30;60.60
61323;DHT22;47203;48.428;11.974;2024-02-28T01:52:30;9.30;60.60
61323;DHT22;47203;48.428;11.974;2024-02-28T01:54:34;9.30;60.70
61323;DHT22;47203;48.428;11.974;2024-02-28T01:56:39;9.30;60.70
61323;DHT22;47203;48.428;11.974;2024-02-28T01:58:45;9.30;60.70
61323;DHT22;47203;48.428;11.974;2024-02-28T02:00:51;9.30;60.80
61323;DHT22;47203;48.428;11.974;2024-02-28T02:02:55;9.30;60.80
61323;DHT22;47203;48.428;11.974;2024-02-28T02:05:00;9.30;60.80
61323;DHT22;47203;48.428;11.974;2024-02-28T02:07:04;9.30;60.80
61323;DHT22;47203;48.428;11.974;2024-02-28T02:09:10;9.30;60.80
61323;DHT22;47203;48.428;11.974;2024-02-28T02:11:15;9.30;60.80
61323;DHT22;47203;48.428;11.974;2024-02-28T02:13:21;9.30;60.80
61323;DHT22;47203;48.428;11.974;2024-02-28T02:15:25;9.30;60.80
61323;DHT22;47203;48.428;11.974;2024-02-28T02:17:32;9.30;60.80
61323;DHT22;47203;48.428;11.974;2024-02-28T02:19:36;9.30;60.80
61323;DHT22;47203;48.428;11.974;2024-02-28T02:21:49;9.30;60.80
61323;DHT22;47203;48.428;11.974;2024-02-28T02:23:57;9.40;60.90
61323;DHT22;47203;48.428;11.974;2024-02-28T02:26:00;9.40;60.90
61323;DHT22;47203;48.428;11.974;2024-02-28T02:28:04;9.40;60.90
61323;DHT22;47203;48.428;11.974;2024-02-28T02:30:08;9.40;61.00
61323;DHT22;47203;48.428;11.974;2024-02-28T02:32:13;9.30;61.00
61323;DHT22;47203;48.428;11.974;2024-02-28T02:34:15;9.30;61.00
61323;DHT22;47203;48.428;11.974;2024-02-28T02:36:19;9.40;61.40
61323;DHT22;47203;48.428;11.974;2024-02-28T02:38:22;9.40;60.80
61323;DHT22;47203;48.428;11.974;2024-02-28T02:40:27;9.40;60.80
61323;DHT22;47203;48.428;11.974;2024-02-28T02:42:32;9.40;60.90
61323;DHT22;47203;48.428;11.974;2024-02-28T02:44:35;9.40;60.90
61323;DHT22;47203;48.428;11.974;2024-02-28T02:46:39;9.40;60.90
61323;DHT22;47203;48.428;11.974;2024-02-28T02:48:42;9.40;61.00
61323;DHT22;47203;48.428;11.974;2024-02-28T02:50:46;9.40;61.10
61323;DHT22;47203;48.428;11.974;2024-02-28T02:52:49;9.40;61.10
61323;DHT22;47203;48.428;11.974;2024-02-28T02:54:53;9.50;61.10
61323;DHT22;47203;48.428;11.974;2024-02-28T02:57:00;9.40;61.00
61323;DHT22;47203;48.428;11.974;2024-02-28T02:59:03;9.40;61.00
61323;DHT22;47203;48.428;11.974;2024-02-28T03:01:07;9.40;60.90
61323;DHT22;47203;48.428;11.974;2024-02-28T03:03:10;9.40;60.80
61323;DHT22;47203;48.428;11.974;2024-02-28T03:05:13;9.40;60.80
61323;DHT22;47203;48.428;11.974;2024-02-28T03:07:17;9.40;60.80
61323;DHT22;47203;48.428;11.974;2024-02-28T03:09:20;9.40;60.80
61323;DHT22;47203;48.428;11.974;2024-02-28T03:11:24;9.40;60.80
61323;DHT22;47203;48.428;11.974;2024-02-28T03:13:29;9.40;60.70
61323;DHT22;47203;48.428;11.974;2024-02-28T03:15:32;9.40;60.70
61323;DHT22;47203;48.428;11.974;2024-02-28T03:17:36;9.30;60.70
61323;DHT22;47203;48.428;11.974;2024-02-28T03:19:38;9.30;60.70
61323;DHT22;47203;48.428;11.974;2024-02-28T03:21:43;9.30;60.80
61323;DHT22;47203;48.428;11.974;2024-02-28T03:23:46;9.30;60.90
61323;DHT22;47203;48.428;11.974;2024-02-28T03:25:50;9.30;60.80
61323;DHT22;47203;48.428;11.974;2024-02-28T03:27:53;9.30;60.90
61323;DHT22;47203;48.428;11.974;2024-02-28T03:29:58;9.20;60.80
61323;DHT22;47203;48.428;11.974;2024-02-28T03:32:04;9.30;60.90
61323;DHT22;47203;48.428;11.974;2024-02-28T03:34:07;9.20;60.80
61323;DHT22;47203;48.428;11.974;2024-02-28T03:36:10;9.20;60.80
61323;DHT22;47203;48.428;11.974;2024-02-28T03:38:13;9.20;60.90
61323;DHT22;47203;48.428;11.974;2024-02-28T03:40:17;9.20;61.00
61323;DHT22;47203;48.428;11.974;2024-02-28T03:42:20;9.20;61.10
61323;DHT22;47203;48.428;11.974;2024-02-28T03:44:24;9.20;61.20
61323;DHT22;47203;48.428;11.974;2024-02-28T03:46:33;9.20;61.20
61323;DHT22;47203;48.428;11.974;2024-02-28T03:48:37;9.20;61.40
61323;DHT22;47203;48.428;11.974;2024-02-28T03:50:40;9.20;61.30
61323;DHT22;47203;48.428;11.974;2024-02-28T03:52:43;9.20;61.60
61323;DHT22;47203;48.428;11.974;2024-02-28T03:54:45;9.30;61.20
61323;DHT22;47203;48.428;11.974;2024-02-28T03:56:49;9.20;61.20
61323;DHT22;47203;48.428;11.974;2024-02-28T03:58:53;9.20;61.30
61323;DHT22;47203;48.428;11.974;2024-02-28T04:00:55;9.30;61.40
61323;DHT22;47203;48.428;11.974;2024-02-28T04:03:00;9.30;61.50
61323;DHT22;47203;48.428;11.974;2024-02-28T04:05:05;9.30;61.60
61323;DHT22;47203;48.428;11.974;2024-02-28T04:07:10;9.30;61.70
61323;DHT22;47203;48.428;11.974;2024-02-28T04:09:13;9.30;61.70
61323;DHT22;47203;48.428;11.974;2024-02-28T04:11:18;9.30;61.70
61323;DHT22;47203;48.428;11.974;2024-02-28T04:13:22;9.30;61.70
61323;DHT22;47203;48.428;11.974;2024-02-28T04:15:25;9.30;61.60
61323;DHT22;47203;48.428;11.974;2024-02-28T04:17:28;9.40;61.60
61323;DHT22;47203;48.428;11.974;2024-02-28T04:19:34;9.40;61.50
61323;DHT22;47203;48.428;11.974;2024-02-28T04:21:39;9.40;61.50
61323;DHT22;47203;48.428;11.974;2024-02-28T04:23:43;9.40;61.50
61323;DHT22;47203;48.428;11.974;2024-02-28T04:25:46;9.40;61.50
61323;DHT22;47203;48.428;11.974;2024-02-28T04:27:50;9.30;61.50
61323;DHT22;47203;48.428;11.974;2024-02-28T04:29:53;9.30;61.50
61323;DHT22;47203;48.428;11.974;2024-02-28T04:31:57;9.30;61.50
61323;DHT22;47203;48.428;11.974;2024-02-28T04:34:00;9.30;61.50
61323;DHT22;47203;48.428;11.974;2024-02-28T04:36:06;9.30;61.50
61323;DHT22;47203;48.428;11.974;2024-02-28T04:38:10;9.30;62.10
61323;DHT22;47203;48.428;11.974;2024-02-28T04:40:14;9.30;61.50
61323;DHT22;47203;48.428;11.974;2024-02-28T04:42:17;9.20;61.40
61323;DHT22;47203;48.428;11.974;2024-02-28T04:44:21;9.20;61.40
61323;DHT22;47203;48.428;11.974;2024-02-28T04:46:24;9.20;62.00
61323;DHT22;47203;48.428;11.974;2024-02-28T04:48:28;9.20;61.40
61323;DHT22;47203;48.428;11.974;2024-02-28T04:50:31;9.10;61.40
61323;DHT22;47203;48.428;11.974;2024-02-28T04:52:36;9.10;61.40
61323;DHT22;47203;48.428;11.974;2024-02-28T04:54:40;9.10;61.40
61323;DHT22;47203;48.428;11.974;2024-02-28T04:56:43;9.10;61.40
61323;DHT22;47203;48.428;11.974;2024-02-28T04:58:48;9.10;61.40
61323;DHT22;47203;48.428;11.974;2024-02-28T05:00:52;9.10;61.50
61323;DHT22;47203;48.428;11.974;2024-02-28T05:02:55;9.10;61.50
61323;DHT22;47203;48.428;11.974;2024-02-28T05:04:59;9.00;61.50
61323;DHT22;47203;48.428;11.974;2024-02-28T05:07:03;9.00;61.50
61323;DHT22;47203;48.428;11.974;2024-02-28T05:09:10;9.00;61.50
61323;DHT22;47203;48.428;11.974;2024-02-28T05:11:13;9.00;61.60
61323;DHT22;47203;48.428;11.974;2024-02-28T05:13:17;9.00;61.60
61323;DHT22;47203;48.428;11.974;2024-02-28T05:15:20;9.00;61.60
61323;DHT22;47203;48.428;11.974;2024-02-28T05:17:25;9.00;61.70
61323;DHT22;47203;48.428;11.974;2024-02-28T05:19:29;9.00;61.70
61323;DHT22;47203;48.428;11.974;2024-02-28T05:21:39;9.00;61.70
61323;DHT22;47203;48.428;11.974;2024-02-28T05:23:44;9.00;61.90
61323;DHT22;47203;48.428;11.974;2024-02-28T05:25:50;9.00;61.80
61323;DHT22;47203;48.428;11.974;2024-02-28T05:27:53;9.00;61.90
61323;DHT22;47203;48.428;11.974;2024-02-28T05:29:57;9.00;61.90
61323;DHT22;47203;48.428;11.974;2024-02-28T05:32:03;8.90;61.80
61323;DHT22;47203;48.428;11.974;2024-02-28T05:34:07;9.00;61.90
61323;DHT22;47203;48.428;11.974;2024-02-28T05:36:11;9.00;61.90
61323;DHT22;47203;48.428;11.974;2024-02-28T05:38:15;9.00;62.50
61323;DHT22;47203;48.428;11.974;2024-02-28T05:40:18;9.00;62.00
61323;DHT22;47203;48.428;11.974;2024-02-28T05:42:23;9.00;62.10
61323;DHT22;47203;48.428;11.974;2024-02-28T05:44:27;9.00;62.10
61323;DHT22;47203;48.428;11.974;2024-02-28T05:46:31;9.00;62.10
61323;DHT22;47203;48.428;11.974;2024-02-28T05:48:35;9.00;62.20
61323;DHT22;47203;48.428;11.974;2024-02-28T05:50:39;9.00;62.20
61323;DHT22;47203;48.428;11.974;2024-02-28T05:52:43;9.00;62.30
61323;DHT22;47203;48.428;11.974;2024-02-28T05:54:46;9.10;62.30
61323;DHT22;47203;48.428;11.974;2024-02-28T05:56:50;9.00;62.30
61323;DHT22;47203;48.428;11.974;2024-02-28T05:58:56;9.10;62.30
61323;DHT22;47203;48.428;11.974;2024-02-28T06:01:00;9.10;62.30
61323;DHT22;47203;48.428;11.974;2024-02-28T06:03:04;9.10;62.30
61323;DHT22;47203;48.428;11.974;2024-02-28T06:05:08;9.10;62.30
61323;DHT22;47203;48.428;11.974;2024-02-28T06:07:11;9.10;62.30
61323;DHT22;47203;48.428;11.974;2024-02-28T06:09:15;9.10;62.30
61323;DHT22;47203;48.428;11.974;2024-02-28T06:11:17;9.10;62.40
61323;DHT22;47203;48.428;11.974;2024-02-28T06:13:21;9.10;62.40
61323;DHT22;47203;48.428;11.974;2024-02-28T06:15:26;9.20;62.40
61323;DHT22;47203;48.428;11.974;2024-02-28T06:17:29;9.20;62.50
61323;DHT22;47203;48.428;11.974;2024-02-28T06:19:33;9.20;62.50
61323;DHT22;47203;48.428;11.974;2024-02-28T06:21:36;9.20;62.50
61323;DHT22;47203;48.428;11.974;2024-02-28T06:23:40;9.20;62.50
61323;DHT22;47203;48.428;11.974;2024-02-28T06:25:43;9.30;62.50
61323;DHT22;47203;48.428;11.974;2024-02-28T06:27:47;9.30;62.60
61323;DHT22;47203;48.428;11.974;2024-02-28T06:29:50;9.30;62.60
61323;DHT22;47203;48.428;11.974;2024-02-28T06:31:55;9.30;62.60
61323;DHT22;47203;48.428;11.974;2024-02-28T06:33:58;9.30;62.60
61323;DHT22;47203;48.428;11.974;2024-02-28T06:36:02;9.40;62.60
61323;DHT22;47203;48.428;11.974;2024-02-28T06:38:06;9.40;62.60
61323;DHT22;47203;48.428;11.974;2024-02-28T06:40:11;9.40;62.50
61323;DHT22;47203;48.428;11.974;2024-02-28T06:42:13;9.40;62.50
61323;DHT22;47203;48.428;11.974;2024-02-28T06:44:18;9.40;62.50
61323;DHT22;47203;48.428;11.974;2024-02-28T06:46:21;9.50;62.50
61323;DHT22;47203;48.428;11.974;2024-02-28T06:48:27;9.50;62.50
61323;DHT22;47203;48.428;11.974;2024-02-28T06:50:30;9.50;62.60
61323;DHT22;47203;48.428;11.974;2024-02-28T06:52:34;9.50;62.50
61323;DHT22;47203;48.428;11.974;2024-02-28T06:54:36;9.50;62.60
61323;DHT22;47203;48.428;11.974;2024-02-28T06:56:40;9.50;63.20
61323;DHT22;47203;48.428;11.974;2024-02-28T06:58:42;9.50;62.60
61323;DHT22;47203;48.428;11.974;2024-02-28T07:00:46;9.50;62.70
61323;DHT22;47203;48.428;11.974;2024-02-28T07:02:55;9.60;62.70
61323;DHT22;47203;48.428;11.974;2024-02-28T07:05:00;9.60;62.60
61323;DHT22;47203;48.428;11.974;2024-02-28T07:07:03;9.60;62.70
61323;DHT22;47203;48.428;11.974;2024-02-28T07:09:07;9.60;62.60
61323;DHT22;47203;48.428;11.974;2024-02-28T07:11:13;9.60;62.60
61323;DHT22;47203;48.428;11.974;2024-02-28T07:13:17;9.60;62.70
61323;DHT22;47203;48.428;11.974;2024-02-28T07:15:21;9.70;63.30
61323;DHT22;47203;48.428;11.974;2024-02-28T07:17:24;9.60;62.60
61323;DHT22;47203;48.428;11.974;2024-02-28T07:19:28;9.70;62.60
61323;DHT22;47203;48.428;11.974;2024-02-28T07:21:32;9.70;62.60
61323;DHT22;47203;48.428;11.974;2024-02-28T07:23:38;9.70;62.70
61323;DHT22;47203;48.428;11.974;2024-02-28T07:25:42;9.70;62.70
61323;DHT22;47203;48.428;11.974;2024-02-28T07:27:47;9.70;62.70
61323;DHT22;47203;48.428;11.974;2024-02-28T07:29:52;9.80;62.80
61323;DHT22;47203;48.428;11.974;2024-02-28T07:31:56;9.80;62.80
61323;DHT22;47203;48.428;11.974;2024-02-28T07:33:58;9.80;63.10
61323;DHT22;47203;48.428;11.974;2024-02-28T07:36:03;9.80;62.80
61323;DHT22;47203;48.428;11.974;2024-02-28T07:38:08;9.90;62.90
61323;DHT22;47203;48.428;11.974;2024-02-28T07:40:12;9.90;62.90
61323;DHT22;47203;48.428;11.974;2024-02-28T07:42:16;9.90;62.80
61323;DHT22;47203;48.428;11.974;2024-02-28T07:44:20;10.00;62.70
61323;DHT22;47203;48.428;11.974;2024-02-28T07:46:23;9.90;62.70
61323;DHT22;47203;48.428;11.974;2024-02-28T07:48:27;10.00;62.80
61323;DHT22;47203;48.428;11.974;2024-02-28T07:50:29;10.00;62.70
61323;DHT22;47203;48.428;11.974;2024-02-28T07:52:33;10.00;62.70
61323;DHT22;47203;48.428;11.974;2024-02-28T07:54:41;10.10;62.70
61323;DHT22;47203;48.428;11.974;2024-02-28T07:56:45;10.10;62.70
61323;DHT22;47203;48.428;11.974;2024-02-28T07:58:49;10.10;62.70
61323;DHT22;47203;48.428;11.974;2024-02-28T08:00:51;10.10;62.70
61323;DHT22;47203;48.428;11.974;2024-02-28T08:02:56;10.10;62.70
61323;DHT22;47203;48.428;11.974;2024-02-28T08:05:00;10.20;62.80
61323;DHT22;47203;48.428;11.974;2024-02-28T08:07:04;10.20;62.80
61323;DHT22;47203;48.428;11.974;2024-02-28T08:09:08;10.20;62.90
61323;DHT22;47203;48.428;11.974;2024-02-28T08:11:16;10.20;62.90
61323;DHT22;47203;48.428;11.974;2024-02-28T08:13:21;10.20;62.90
61323;DHT22;47203;48.428;11.974;2024-02-28T08:15:23;10.30;62.90
61323;DHT22;47203;48.428;11.974;2024-02-28T08:17:27;10.30;62.90
61323;DHT22;47203;48.428;11.974;2024-02-28T08:19:30;10.30;63.00
61323;DHT22;47203;48.428;11.974;2024-02-28T08:21:36;10.30;63.20
61323;DHT22;47203;48.428;11.974;2024-02-28T08:23:39;10.40;62.80
61323;DHT22;47203;48.428;11.974;2024-02-28T08:25:45;10.30;62.80
61323;DHT22;47203;48.428;11.974;2024-02-28T08:27:50;10.40;62.90
61323;DHT22;47203;48.428;11.974;2024-02-28T08:29:54;10.40;63.00
61323;DHT22;47203;48.428;11.974;2024-02-28T08:31:57;10.50;63.00
61323;DHT22;47203;48.428;11.974;2024-02-28T08:34:01;10.50;63.00
61323;DHT22;47203;48.428;11.974;2024-02-28T08:36:06;10.50;62.90
61323;DHT22;47203;48.428;11.974;2024-02-28T08:38:10;10.50;62.90
61323;DHT22;47203;48.428;11.974;2024-02-28T08:40:14;10.60;62.90
61323;DHT22;47203;48.428;11.974;2024-02-28T08:42:18;10.60;62.80
61323;DHT22;47203;48.428;11.974;2024-02-28T08:44:23;10.60;62.70
61323;DHT22;47203;48.428;11.974;2024-02-28T08:46:27;10.70;62.80
61323;DHT22;47203;48.428;11.974;2024-02-28T08:48:30;10.70;62.60
61323;DHT22;47203;48.428;11.974;2024-02-28T08:50:34;10.70;62.60
61323;DHT22;47203;48.428;11.974;2024-02-28T08:52:38;10.70;62.60
61323;DHT22;47203;48.428;11.974;2024-02-28T08:54:42;10.80;62.60
61323;DHT22;47203;48.428;11.974;2024-02-28T08:56:46;10.80;62.60
61323;DHT22;47203;48.428;11.974;2024-02-28T08:58:57;10.80;62.50
61323;DHT22;47203;48.428;11.974;2024-02-28T09:01:01;10.80;62.50
61323;DHT22;47203;48.428;11.974;2024-02-28T09:03:06;10.80;62.40
61323;DHT22;47203;48.428;11.974;2024-02-28T09:05:09;10.90;62.40
61323;DHT22;47203;48.428;11.974;2024-02-28T09:07:13;10.90;62.30
61323;DHT22;47203;48.428;11.974;2024-02-28T09:09:19;10.90;62.40
61323;DHT22;47203;48.428;11.974;2024-02-28T09:11:25;11.00;62.40
61323;DHT22;47203;48.428;11.974;2024-02-28T09:13:30;11.00;62.30
61323;DHT22;47203;48.428;11.974;2024-02-28T09:15:34;11.00;62.30
61323;DHT22;47203;48.428;11.974;2024-02-28T09:17:39;11.00;62.20
61323;DHT22;47203;48.428;11.974;2024-02-28T09:19:43;11.00;62.20
61323;DHT22;47203;48.428;11.974;2024-02-28T09:21:47;11.10;62.20
61323;DHT22;47203;48.428;11.974;2024-02-28T09:23:50;11.10;62.20
61323;DHT22;47203;48.428;11.974;2024-02-28T09:25:54;11.10;62.30
61323;DHT22;47203;48.428;11.974;2024-02-28T09:27:58;11.10;62.30
61323;DHT22;47203;48.428;11.974;2024-02-28T09:30:02;11.20;62.30
61323;DHT22;47203;48.428;11.974;2024-02-28T09:32:07;11.20;62.30
61323;DHT22;47203;48.428;11.974;2024-02-28T09:34:12;11.20;62.20
61323;DHT22;47203;48.428;11.974;2024-02-28T09:36:16;11.30;62.20
61323;DHT22;47203;48.428;11.974;2024-02-28T09:38:19;11.30;62.00
61323;DHT22;47203;48.428;11.974;2024-02-28T09:40:23;11.40;62.00
61323;DHT22;47203;48.428;11.974;2024-02-28T09:42:26;11.40;62.00
61323;DHT22;47203;48.428;11.974;2024-02-28T09:44:31;11.40;61.90
61323;DHT22;47203;48.428;11.974;2024-02-28T09:46:35;11.40;61.80
61323;DHT22;47203;48.428;11.974;2024-02-28T09:48:40;11.40;61.80
61323;DHT22;47203;48.428;11.974;2024-02-28T09:50:47;11.50;61.90
61323;DHT22;47203;48.428;11.974;2024-02-28T09:52:49;11.50;61.80
61323;DHT22;47203;48.428;11.974;2024-02-28T09:55:07;11.50;61.70
61323;DHT22;47203;48.428;11.974;2024-02-28T09:57:11;11.60;61.60
61323;DHT22;47203;48.428;11.974;2024-02-28T09:59:17;11.60;61.50
61323;DHT22;47203;48.428;11.974;2024-02-28T10:01:22;11.60;61.40
61323;DHT22;47203;48.428;11.974;2024-02-28T10:03:29;11.60;61.30
61323;DHT22;47203;48.428;11.974;2024-02-28T10:05:34;11.60;61.20
61323;DHT22;47203;48.428;11.974;2024-02-28T10:07:40;11.70;61.20
61323;DHT22;47203;48.428;11.974;2024-02-28T10:09:45;11.60;61.00
61323;DHT22;47203;48.428;11.974;2024-02-28T10:11:50;11.70;61.00
61323;DHT22;47203;48.428;11.974;2024-02-28T10:13:54;11.60;60.90
61323;DHT22;47203;48.428;11.974;2024-02-28T10:15:58;11.70;61.00
61323;DHT22;47203;48.428;11.974;2024-02-28T10:18:02;11.70;61.00
61323;DHT22;47203;48.428;11.974;2024-02-28T10:20:06;11.70;61.00
61323;DHT22;47203;48.428;11.974;2024-02-28T10:22:11;11.70;61.00
61323;DHT22;47203;48.428;11.974;2024-02-28T10:24:17;11.70;61.00
61323;DHT22;47203;48.428;11.974;2024-02-28T10:26:19;11.70;60.90
61323;DHT22;47203;48.428;11.974;2024-02-28T10:28:23;11.70;60.90
61323;DHT22;47203;48.428;11.974;2024-02-28T10:30:27;11.70;60.90
61323;DHT22;47203;48.428;11.974;2024-02-28T10:32:30;11.70;60.90
61323;DHT22;47203;48.428;11.974;2024-02-28T10:34:37;11.70;60.80
61323;DHT22;47203;48.428;11.974;2024-02-28T10:36:41;11.70;60.80
61323;DHT22;47203;48.428;11.974;2024-02-28T10:38:47;11.70;60.80
61323;DHT22;47203;48.428;11.974;2024-02-28T10:40:53;11.70;60.70
61323;DHT22;47203;48.428;11.974;2024-02-28T10:42:57;11.70;60.60
61323;DHT22;47203;48.428;11.974;2024-02-28T10:45:03;11.70;61.20
61323;DHT22;47203;48.428;11.974;2024-02-28T10:47:22;11.70;60.60
61323;DHT22;47203;48.428;11.974;2024-02-28T10:49:26;11.70;60.60
61323;DHT22;47203;48.428;11.974;2024-02-28T10:51:34;11.80;60.60
61323;DHT22;47203;48.428;11.974;2024-02-28T10:53:38;11.70;60.60
61323;DHT22;47203;48.428;11.974;2024-02-28T10:55:47;11.70;60.60
61323;DHT22;47203;48.428;11.974;2024-02-28T10:58:01;11.80;60.60
61323;DHT22;47203;48.428;11.974;2024-02-28T11:00:06;11.80;60.60
61323;DHT22;47203;48.428;11.974;2024-02-28T11:02:11;11.70;60.60
61323;DHT22;47203;48.428;11.974;2024-02-28T11:04:16;11.70;60.50
61323;DHT22;47203;48.428;11.974;2024-02-28T11:06:21;11.70;60.60
61323;DHT22;47203;48.428;11.974;2024-02-28T11:08:28;11.70;60.60
61323;DHT22;47203;48.428;11.974;2024-02-28T11:10:33;11.70;60.60
61323;DHT22;47203;48.428;11.974;2024-02-28T11:12:37;11.70;60.60
61323;DHT22;47203;48.428;11.974;2024-02-28T11:14:42;11.80;61.30
61323;DHT22;47203;48.428;11.974;2024-02-28T11:17:01;11.70;60.60
61323;DHT22;47203;48.428;11.974;2024-02-28T11:19:06;11.70;60.60
61323;DHT22;47203;48.428;11.974;2024-02-28T11:21:15;11.80;60.70
61323;DHT22;47203;48.428;11.974;2024-02-28T11:23:18;11.70;60.70
61323;DHT22;47203;48.428;11.974;2024-02-28T11:25:24;11.70;60.70
61323;DHT22;47203;48.428;11.974;2024-02-28T11:27:28;11.80;60.60
61323;DHT22;47203;48.428;11.974;2024-02-28T11:29:32;11.80;60.60
61323;DHT22;47203;48.428;11.974;2024-02-28T11:31:41;11.80;61.20
61323;DHT22;47203;48.428;11.974;2024-02-28T11:33:44;11.90;60.50
61323;DHT22;47203;48.428;11.974;2024-02-28T11:35:54;11.80;60.50
61323;DHT22;47203;48.428;11.974;2024-02-28T11:37:59;11.80;60.50
61323;DHT22;47203;48.428;11.974;2024-02-28T11:40:03;11.80;60.50
61323;DHT22;47203;48.428;11.974;2024-02-28T11:42:11;11.90;60.50
61323;DHT22;47203;48.428;11.974;2024-02-28T11:44:17;11.90;60.50
61323;DHT22;47203;48.428;11.974;2024-02-28T11:46:21;11.90;60.50
61323;DHT22;47203;48.428;11.974;2024-02-28T11:48:26;11.90;60.40
61323;DHT22;47203;48.428;11.974;2024-02-28T11:50:29;11.90;60.40
61323;DHT22;47203;48.428;11.974;2024-02-28T11:52:33;12.00;60.30
61323;DHT22;47203;48.428;11.974;2024-02-28T11:54:37;12.00;60.30
61323;DHT22;47203;48.428;11.974;2024-02-28T11:56:41;12.10;60.90
61323;DHT22;47203;48.428;11.974;2024-02-28T11:58:50;12.10;60.10
61323;DHT22;47203;48.428;11.974;2024-02-28T12:00:54;12.10;60.00
61323;DHT22;47203;48.428;11.974;2024-02-28T12:03:04;12.10;60.00
61323;DHT22;47203;48.428;11.974;2024-02-28T12:05:10;12.10;59.90
61323;DHT22;47203;48.428;11.974;2024-02-28T12:07:14;12.20;59.80
61323;DHT22;47203;48.428;11.974;2024-02-28T12:09:17;12.20;59.70
61323;DHT22;47203;48.428;11.974;2024-02-28T12:11:32;12.20;59.60
61323;DHT22;47203;48.428;11.974;2024-02-28T12:13:37;12.20;59.60
61323;DHT22;47203;48.428;11.974;2024-02-28T12:15:40;12.20;59.80
61323;DHT22;47203;48.428;11.974;2024-02-28T12:17:45;12.20;59.60
61323;DHT22;47203;48.428;11.974;2024-02-28T12:19:49;12.20;59.60
61323;DHT22;47203;48.428;11.974;2024-02-28T12:21:58;12.20;59.70
61323;DHT22;47203;48.428;11.974;2024-02-28T12:24:02;12.20;59.50
61323;DHT22;47203;48.428;11.974;2024-02-28T12:26:07;12.20;59.20
61323;DHT22;47203;48.428;11.974;2024-02-28T12:28:09;12.20;59.20
61323;DHT22;47203;48.428;11.974;2024-02-28T12:30:14;12.20;59.20
61323;DHT22;47203;48.428;11.974;2024-02-28T12:32:17;12.10;59.30
61323;DHT22;47203;48.428;11.974;2024-02-28T12:34:21;12.10;59.20
61323;DHT22;47203;48.428;11.974;2024-02-28T12:36:25;12.10;59.40
61323;DHT22;47203;48.428;11.974;2024-02-28T12:38:30;12.10;59.70
61323;DHT22;47203;48.428;11.974;2024-02-28T12:40:34;12.00;59.30
61323;DHT22;47203;48.428;11.974;2024-02-28T12:42:37;12.00;59.40
61323;DHT22;47203;48.428;11.974;2024-02-28T12:44:42;12.00;59.30
61323;DHT22;47203;48.428;11.974;2024-02-28T12:46:47;12.00;59.30
61323;DHT22;47203;48.428;11.974;2024-02-28T12:48:51;11.90;59.20
61323;DHT22;47203;48.428;11.974;2024-02-28T12:50:54;11.90;59.30
61323;DHT22;47203;48.428;11.974;2024-02-28T12:52:58;11.90;59.30
61323;DHT22;47203;48.428;11.974;2024-02-28T12:55:04;11.90;59.80
61323;DHT22;47203;48.428;11.974;2024-02-28T12:57:07;11.90;59.80
61323;DHT22;47203;48.428;11.974;2024-02-28T12:59:11;11.90;59.70
61323;DHT22;47203;48.428;11.974;2024-02-28T13:01:14;11.90;59.80